Time;durP1;ratioP1;P1;durP2;ratioP2;P2;SDS_P1;SDS_P2;PMS_P1;PMS_P2;Temp;Humidity;BMP_temperature;BMP_pressure;BME280_temperature;BME280_humidity;BME280_pressure;Samples;Min_cycle;Max_cycle;Signal;HPM_P1;HPM_P2
2023/06/30 00:01:30;;;;;;;159.75;152.48;;;13.00;99.90;;;;;;5019758;28;20561;-70
2023/06/30 00:03:56;;;;;;;154.73;147.48;;;12.90;99.90;;;;;;5024296;28;20445;-70
2023/06/30 00:06:22;;;;;;;153.88;146.82;;;12.90;99.90;;;;;;5012129;28;20072;-70
2023/06/30 00:08:48;;;;;;;150.05;143.23;;;12.80;99.90;;;;;;5015163;28;20836;-70
2023/06/30 00:11:15;;;;;;;154.27;147.13;;;12.80;99.90;;;;;;5028048;28;20041;-70
2023/06/30 00:13:41;;;;;;;181.70;173.55;;;12.80;99.90;;;;;;5018795;28;20150;-70
2023/06/30 00:16:06;;;;;;;156.93;149.30;;;12.80;99.90;;;;;;5020052;28;20089;-70
2023/06/30 00:18:32;;;;;;;198.25;188.88;;;12.80;99.90;;;;;;5029198;28;20048;-70
2023/06/30 00:20:57;;;;;;;173.13;165.18;;;12.70;99.90;;;;;;5042367;28;20045;-70
2023/06/30 00:23:27;;;;;;;218.25;208.32;;;12.70;99.90;;;;;;5028154;28;20033;-71
2023/06/30 00:25:53;;;;;;;233.48;222.80;;;12.70;99.90;;;;;;5027773;28;20037;-70
2023/06/30 00:28:19;;;;;;;200.05;190.90;;;12.70;99.90;;;;;;5038227;28;20119;-70
2023/06/30 00:30:44;;;;;;;217.95;207.68;;;12.60;99.90;;;;;;5041375;28;20512;-70
2023/06/30 00:33:10;;;;;;;231.23;220.80;;;12.60;99.90;;;;;;5023739;28;20084;-70
2023/06/30 00:35:36;;;;;;;234.90;224.45;;;12.60;99.90;;;;;;5028558;28;20410;-70
2023/06/30 00:38:01;;;;;;;217.02;207.57;;;12.60;99.90;;;;;;5019099;28;20041;-71
2023/06/30 00:40:27;;;;;;;209.60;199.75;;;12.60;99.90;;;;;;5026538;28;20072;-71
2023/06/30 00:42:53;;;;;;;229.82;219.65;;;12.60;99.90;;;;;;5017270;28;20394;-71
2023/06/30 00:45:18;;;;;;;247.63;236.80;;;12.60;99.90;;;;;;5027580;28;20378;-70
2023/06/30 00:47:44;;;;;;;233.48;222.85;;;12.60;99.90;;;;;;5033464;28;20030;-71
2023/06/30 00:50:11;;;;;;;244.65;233.80;;;12.50;99.90;;;;;;5040594;28;20049;-70
2023/06/30 00:52:37;;;;;;;246.02;234.90;;;12.50;99.90;;;;;;5025260;28;20045;-71
2023/06/30 00:55:04;;;;;;;258.83;247.15;;;12.50;99.90;;;;;;5027373;28;20045;-70
2023/06/30 00:57:30;;;;;;;242.20;231.48;;;12.40;99.90;;;;;;5010993;28;20056;-70
2023/06/30 00:59:56;;;;;;;264.02;251.85;;;12.40;99.90;;;;;;5026278;28;20045;-71
2023/06/30 01:02:27;;;;;;;240.65;229.63;;;12.40;99.90;;;;;;5010175;28;20109;-70
2023/06/30 01:05:14;;;;;;;265.33;253.15;;;12.40;99.90;;;;;;5027359;28;20049;-71
2023/06/30 01:07:51;;;;;;;207.68;198.27;;;12.30;99.90;;;;;;5018685;28;20048;-71
2023/06/30 01:10:22;;;;;;;260.10;248.32;;;12.30;99.90;;;;;;5017444;28;20049;-71
2023/06/30 01:12:48;;;;;;;274.33;262.00;;;12.20;99.90;;;;;;5013605;28;20053;-71
2023/06/30 01:15:15;;;;;;;259.00;247.35;;;12.20;99.90;;;;;;5010352;28;20695;-71
2023/06/30 01:17:56;;;;;;;221.35;211.68;;;12.20;99.90;;;;;;5030537;28;20044;-71
2023/06/30 01:20:23;;;;;;;237.77;227.15;;;12.20;99.90;;;;;;5028903;28;20060;-71
2023/06/30 01:23:02;;;;;;;259.85;247.82;;;12.10;99.90;;;;;;5003384;28;20041;-71
2023/06/30 01:25:29;;;;;;;237.88;227.15;;;12.10;99.90;;;;;;5043176;28;20041;-71
2023/06/30 01:27:56;;;;;;;233.05;222.77;;;12.10;99.90;;;;;;5010047;28;20081;-71
2023/06/30 01:30:23;;;;;;;254.48;243.27;;;12.10;99.90;;;;;;5009513;28;20037;-71
2023/06/30 01:32:54;;;;;;;206.65;197.00;;;12.10;99.90;;;;;;5009760;28;20041;-71
2023/06/30 01:35:21;;;;;;;251.60;240.07;;;12.10;99.90;;;;;;5025676;28;20037;-71
2023/06/30 01:37:46;;;;;;;223.45;213.70;;;12.00;99.90;;;;;;5022633;28;20443;-70
2023/06/30 01:40:12;;;;;;;222.95;212.73;;;12.00;99.90;;;;;;5017230;28;20034;-71
2023/06/30 01:42:39;;;;;;;216.98;207.27;;;12.00;99.90;;;;;;5025964;28;20076;-71
2023/06/30 01:45:07;;;;;;;238.88;227.98;;;12.00;99.90;;;;;;5023501;28;20048;-71
2023/06/30 01:47:33;;;;;;;228.70;218.10;;;12.00;99.90;;;;;;5020121;28;20316;-70
2023/06/30 01:49:59;;;;;;;236.27;225.73;;;11.90;99.90;;;;;;5036813;28;20650;-70
2023/06/30 01:52:25;;;;;;;222.98;213.05;;;11.90;99.90;;;;;;5022624;28;20033;-70
2023/06/30 01:54:51;;;;;;;238.80;228.27;;;11.90;99.90;;;;;;5025783;28;20508;-70
2023/06/30 01:57:16;;;;;;;227.40;216.95;;;11.90;99.90;;;;;;5026593;28;20053;-70
2023/06/30 01:59:42;;;;;;;211.70;202.27;;;11.90;99.90;;;;;;5022269;28;20085;-70
2023/06/30 02:02:08;;;;;;;215.65;206.20;;;11.80;99.90;;;;;;5023753;28;20052;-70
2023/06/30 02:04:33;;;;;;;210.68;201.07;;;11.80;99.90;;;;;;5026269;28;20045;-71
2023/06/30 02:06:59;;;;;;;186.85;178.65;;;11.80;99.90;;;;;;5023584;28;20073;-71
2023/06/30 02:09:25;;;;;;;204.57;195.27;;;11.70;99.90;;;;;;5026808;28;20042;-70
2023/06/30 02:11:50;;;;;;;207.90;198.48;;;11.70;99.90;;;;;;5022936;28;20045;-71
2023/06/30 02:14:16;;;;;;;201.85;192.68;;;11.70;99.90;;;;;;5026314;28;20095;-70
2023/06/30 02:16:42;;;;;;;176.65;168.70;;;11.60;99.90;;;;;;5008777;28;20553;-71
2023/06/30 02:19:07;;;;;;;209.90;200.40;;;11.60;99.90;;;;;;5009937;28;20053;-70
2023/06/30 02:21:33;;;;;;;200.20;191.23;;;11.50;99.90;;;;;;5036056;28;20048;-70
2023/06/30 02:23:58;;;;;;;213.15;203.70;;;11.50;99.90;;;;;;5025627;28;20406;-70
2023/06/30 02:26:24;;;;;;;181.35;173.23;;;11.50;99.90;;;;;;5025997;28;20037;-70
2023/06/30 02:28:50;;;;;;;192.18;183.45;;;11.40;99.90;;;;;;5023803;28;20053;-70
2023/06/30 02:31:15;;;;;;;189.05;180.35;;;11.40;99.90;;;;;;5025725;28;20064;-70
2023/06/30 02:33:41;;;;;;;177.88;169.20;;;11.30;99.90;;;;;;5015082;28;20044;-70
2023/06/30 02:36:07;;;;;;;179.43;170.52;;;11.30;99.90;;;;;;5037176;28;20103;-70
2023/06/30 02:38:32;;;;;;;181.15;172.60;;;11.30;99.90;;;;;;5025401;28;20053;-70
2023/06/30 02:40:58;;;;;;;179.30;171.20;;;11.20;99.90;;;;;;5025957;28;20128;-70
2023/06/30 02:43:24;;;;;;;175.75;167.65;;;11.10;99.90;;;;;;5019155;28;20184;-70
2023/06/30 02:45:50;;;;;;;216.02;206.48;;;11.20;99.90;;;;;;5030698;28;20056;-70
2023/06/30 02:48:16;;;;;;;223.73;213.65;;;11.10;99.90;;;;;;5019546;28;20045;-70
2023/06/30 02:50:43;;;;;;;225.52;215.27;;;11.10;99.90;;;;;;5025978;28;20033;-69
2023/06/30 02:53:08;;;;;;;229.18;219.13;;;11.00;99.90;;;;;;5029226;28;20150;-70
2023/06/30 02:55:35;;;;;;;225.35;215.48;;;11.00;99.90;;;;;;5018043;28;20038;-70
2023/06/30 02:58:01;;;;;;;221.98;212.02;;;10.90;99.90;;;;;;5012289;28;20052;-70
2023/06/30 03:00:26;;;;;;;223.13;213.05;;;10.90;99.90;;;;;;5011802;28;20037;-70
2023/06/30 03:02:52;;;;;;;218.60;208.77;;;10.80;99.90;;;;;;5037954;28;20372;-70
2023/06/30 03:05:18;;;;;;;206.98;197.43;;;10.80;99.90;;;;;;5028277;28;20064;-70
2023/06/30 03:07:43;;;;;;;194.07;185.43;;;10.80;99.90;;;;;;5023059;28;20038;-70
2023/06/30 03:10:09;;;;;;;220.88;210.90;;;10.70;99.90;;;;;;5006106;28;20039;-70
2023/06/30 03:12:35;;;;;;;227.02;217.05;;;10.70;99.90;;;;;;5027370;28;20041;-70
2023/06/30 03:15:00;;;;;;;209.95;200.82;;;10.60;99.90;;;;;;5023318;28;20490;-70
2023/06/30 03:17:26;;;;;;;221.00;211.10;;;10.60;99.90;;;;;;5012770;28;20065;-70
2023/06/30 03:19:52;;;;;;;202.55;193.45;;;10.60;99.90;;;;;;5028417;28;20091;-69
2023/06/30 03:22:17;;;;;;;187.85;179.20;;;10.50;99.90;;;;;;5015720;28;20053;-70
2023/06/30 03:24:43;;;;;;;188.25;179.93;;;10.50;99.90;;;;;;5028010;28;20048;-70
2023/06/30 03:27:08;;;;;;;201.07;192.25;;;10.50;99.90;;;;;;5026449;28;20046;-69
2023/06/30 03:29:34;;;;;;;213.77;204.52;;;10.50;99.90;;;;;;5017452;28;20048;-69
2023/06/30 03:32:00;;;;;;;207.13;197.50;;;10.50;99.90;;;;;;5000687;28;20482;-70
2023/06/30 03:34:25;;;;;;;213.40;204.35;;;10.40;99.90;;;;;;5026543;28;20128;-69
2023/06/30 03:36:51;;;;;;;204.27;195.35;;;10.40;99.90;;;;;;5012755;28;20076;-70
2023/06/30 03:39:16;;;;;;;191.35;182.18;;;10.40;99.90;;;;;;5026706;28;20043;-69
2023/06/30 03:41:42;;;;;;;192.63;183.43;;;10.40;99.90;;;;;;5027390;28;20068;-69
2023/06/30 03:44:08;;;;;;;203.98;194.93;;;10.40;99.90;;;;;;5009407;28;20119;-69
2023/06/30 03:46:34;;;;;;;201.93;193.10;;;10.40;99.90;;;;;;5041335;28;20596;-70
2023/06/30 03:49:00;;;;;;;229.95;219.38;;;10.40;99.90;;;;;;5022647;28;20060;-69
2023/06/30 03:51:25;;;;;;;188.38;179.68;;;10.40;99.90;;;;;;5023598;28;20037;-70
2023/06/30 03:53:51;;;;;;;193.80;184.95;;;10.40;99.90;;;;;;5012091;28;20183;-69
2023/06/30 03:56:17;;;;;;;214.32;204.70;;;10.40;99.90;;;;;;5025269;28;20049;-70
2023/06/30 03:58:43;;;;;;;202.55;193.23;;;10.50;99.90;;;;;;5020188;28;20551;-69
2023/06/30 04:01:08;;;;;;;187.73;179.40;;;10.50;99.90;;;;;;5039492;28;20386;-69
2023/06/30 04:03:34;;;;;;;197.65;188.35;;;10.50;99.90;;;;;;5036986;28;20042;-69
2023/06/30 04:06:00;;;;;;;188.60;179.85;;;10.50;99.90;;;;;;5034988;28;20041;-69
2023/06/30 04:08:26;;;;;;;188.65;180.02;;;10.60;99.90;;;;;;5044236;28;20041;-69
2023/06/30 04:10:51;;;;;;;166.43;159.05;;;10.60;99.90;;;;;;5028411;28;20107;-69
2023/06/30 04:13:17;;;;;;;201.10;192.00;;;10.60;99.90;;;;;;5016251;28;20045;-69
2023/06/30 04:15:43;;;;;;;175.25;167.02;;;10.70;99.90;;;;;;5028514;28;20397;-69
2023/06/30 04:18:08;;;;;;;226.20;216.45;;;10.80;99.90;;;;;;5027929;28;20033;-69
2023/06/30 04:20:34;;;;;;;225.55;215.77;;;10.90;99.90;;;;;;5041758;28;20045;-70
2023/06/30 04:22:59;;;;;;;268.23;256.48;;;11.00;99.90;;;;;;5027219;28;20045;-70
2023/06/30 04:25:25;;;;;;;306.17;292.75;;;11.10;99.90;;;;;;5027658;28;20033;-70
2023/06/30 04:27:51;;;;;;;358.33;342.08;;;11.30;99.90;;;;;;5025673;28;20110;-69
2023/06/30 04:30:16;;;;;;;316.35;302.08;;;11.40;99.90;;;;;;5027617;28;20576;-70
2023/06/30 04:32:42;;;;;;;339.65;324.38;;;11.50;99.90;;;;;;5013680;28;20041;-69
2023/06/30 04:35:08;;;;;;;296.40;283.55;;;11.60;99.90;;;;;;5027634;28;20084;-70
2023/06/30 04:37:40;;;;;;;324.65;310.45;;;11.70;99.90;;;;;;5028040;28;20501;-70
2023/06/30 04:40:09;;;;;;;250.68;239.98;;;11.80;99.90;;;;;;5038173;28;20116;-70
2023/06/30 04:42:36;;;;;;;204.27;195.38;;;11.90;99.90;;;;;;5010832;28;20093;-70
2023/06/30 04:45:02;;;;;;;215.98;206.23;;;12.00;99.90;;;;;;5026826;28;20056;-70
2023/06/30 04:47:28;;;;;;;234.35;223.95;;;12.10;99.90;;;;;;5038822;28;20127;-69
2023/06/30 04:49:54;;;;;;;201.07;192.23;;;12.20;99.90;;;;;;5027308;28;20137;-70
2023/06/30 04:52:20;;;;;;;182.77;174.63;;;12.30;99.90;;;;;;5027771;28;20050;-70
2023/06/30 04:54:46;;;;;;;185.02;176.77;;;12.40;99.90;;;;;;5026330;28;20548;-70
2023/06/30 04:57:11;;;;;;;185.80;177.57;;;12.40;99.90;;;;;;5024519;28;20107;-70
2023/06/30 04:59:38;;;;;;;172.38;164.57;;;12.50;99.90;;;;;;5021247;28;20080;-70
2023/06/30 05:02:04;;;;;;;166.57;158.98;;;12.70;99.90;;;;;;5027580;28;20041;-70
2023/06/30 05:04:29;;;;;;;173.65;165.15;;;12.80;99.90;;;;;;5023612;28;20037;-70
2023/06/30 05:06:55;;;;;;;190.30;181.88;;;12.90;99.90;;;;;;5027462;28;20059;-70
2023/06/30 05:09:22;;;;;;;165.00;157.25;;;13.10;99.90;;;;;;5021045;28;20413;-70
2023/06/30 05:11:48;;;;;;;171.65;164.00;;;13.30;99.90;;;;;;5040347;28;20049;-70
2023/06/30 05:14:14;;;;;;;183.02;175.15;;;13.40;99.90;;;;;;5022761;28;20390;-70
2023/06/30 05:16:39;;;;;;;184.52;176.18;;;13.60;99.90;;;;;;5027529;28;20095;-70
2023/06/30 05:19:05;;;;;;;139.23;132.63;;;13.80;99.90;;;;;;5005841;28;20100;-70
2023/06/30 05:21:31;;;;;;;123.70;117.65;;;14.00;99.90;;;;;;5039145;28;20045;-70
2023/06/30 05:23:56;;;;;;;120.15;114.50;;;14.20;99.90;;;;;;5019946;28;20069;-70
2023/06/30 05:26:22;;;;;;;154.98;148.07;;;14.30;99.90;;;;;;5025597;28;20570;-70
2023/06/30 05:28:48;;;;;;;177.18;169.57;;;14.40;99.90;;;;;;5018599;28;20048;-70
2023/06/30 05:31:13;;;;;;;235.27;225.23;;;14.50;99.90;;;;;;5007538;28;20506;-70
2023/06/30 05:33:39;;;;;;;120.50;115.20;;;14.50;99.90;;;;;;5020932;28;20604;-70
2023/06/30 05:36:05;;;;;;;209.93;200.93;;;14.60;99.90;;;;;;5031663;28;20406;-70
2023/06/30 05:38:30;;;;;;;249.15;238.85;;;14.70;99.90;;;;;;5005966;28;20074;-70
2023/06/30 05:40:56;;;;;;;290.98;278.20;;;14.80;99.90;;;;;;5025370;28;20049;-70
2023/06/30 05:43:22;;;;;;;276.55;264.52;;;14.90;99.90;;;;;;5035563;28;20146;-70
2023/06/30 05:45:49;;;;;;;256.77;246.05;;;15.00;99.90;;;;;;5026909;28;20092;-70
2023/06/30 05:48:15;;;;;;;256.63;245.68;;;15.10;99.90;;;;;;5019126;28;20049;-70
2023/06/30 05:50:41;;;;;;;257.02;246.30;;;15.20;99.90;;;;;;5009856;28;20112;-70
2023/06/30 05:53:07;;;;;;;262.85;251.65;;;15.40;99.90;;;;;;5024247;28;20041;-70
2023/06/30 05:55:33;;;;;;;254.18;243.55;;;15.50;99.90;;;;;;5026334;28;20482;-70
2023/06/30 05:57:58;;;;;;;232.85;222.63;;;15.70;99.90;;;;;;5026342;28;20525;-70
2023/06/30 06:00:25;;;;;;;242.30;231.95;;;15.80;99.90;;;;;;5024729;28;20065;-70
2023/06/30 06:02:50;;;;;;;287.70;275.15;;;15.90;99.90;;;;;;5026049;28;20576;-70
2023/06/30 06:05:17;;;;;;;276.10;264.42;;;16.00;99.90;;;;;;5023131;28;20048;-70
2023/06/30 06:07:42;;;;;;;277.08;265.30;;;16.20;99.90;;;;;;5026265;28;20045;-71
2023/06/30 06:10:08;;;;;;;108.72;103.78;;;16.30;99.90;;;;;;5026199;28;20096;-70
2023/06/30 06:12:34;;;;;;;258.02;247.40;;;16.40;99.90;;;;;;5023859;28;20052;-71
2023/06/30 06:15:00;;;;;;;124.82;119.35;;;16.60;99.90;;;;;;5020239;28;20037;-70
2023/06/30 06:17:25;;;;;;;239.73;229.52;;;16.70;99.90;;;;;;5025752;28;20029;-70
2023/06/30 06:19:56;;;;;;;147.13;140.85;;;16.80;99.90;;;;;;5025215;28;20382;-70
2023/06/30 06:22:22;;;;;;;194.60;186.18;;;17.00;99.90;;;;;;5023962;28;20110;-70
2023/06/30 06:24:48;;;;;;;71.05;67.47;;;17.30;99.90;;;;;;5025703;28;20524;-70
2023/06/30 06:27:13;;;;;;;70.43;67.28;;;17.70;99.90;;;;;;5031314;28;20045;-71
2023/06/30 06:29:39;;;;;;;52.85;50.17;;;18.20;99.90;;;;;;5033314;28;20136;-71
2023/06/30 06:32:05;;;;;;;119.13;113.97;;;18.90;99.90;;;;;;5024397;28;20128;-71
2023/06/30 06:34:31;;;;;;;98.45;94.13;;;20.00;99.90;;;;;;5047636;28;21582;-71
2023/06/30 06:36:56;;;;;;;29.33;27.73;;;20.90;99.90;;;;;;5023023;28;20086;-71
2023/06/30 06:39:22;;;;;;;24.17;22.67;;;21.60;99.90;;;;;;5032109;28;20050;-70
2023/06/30 06:41:48;;;;;;;31.73;29.83;;;21.80;99.90;;;;;;5020272;28;20033;-70
2023/06/30 06:44:14;;;;;;;40.75;38.65;;;21.80;99.90;;;;;;5013326;28;20085;-71
2023/06/30 06:46:40;;;;;;;52.45;49.78;;;22.00;99.90;;;;;;5028011;28;20091;-71
2023/06/30 06:49:05;;;;;;;69.80;66.50;;;21.90;99.90;;;;;;5024175;28;20045;-71
2023/06/30 06:51:33;;;;;;;79.72;76.15;;;21.90;99.90;;;;;;5029647;28;20440;-71
2023/06/30 06:53:58;;;;;;;52.83;50.03;;;22.10;99.90;;;;;;5010183;28;20052;-70
2023/06/30 06:56:24;;;;;;;63.28;60.33;;;22.00;99.90;;;;;;5028812;28;20042;-71
2023/06/30 06:58:50;;;;;;;45.28;43.05;;;21.70;99.90;;;;;;5030065;28;20029;-71
2023/06/30 07:01:15;;;;;;;41.58;39.30;;;21.00;99.90;;;;;;5049453;28;20045;-71
2023/06/30 07:03:41;;;;;;;46.40;43.88;;;20.50;99.90;;;;;;5045080;28;20041;-71
2023/06/30 07:06:07;;;;;;;64.05;60.78;;;20.20;99.90;;;;;;5031283;28;20060;-70
2023/06/30 07:08:35;;;;;;;39.00;36.92;;;20.30;99.90;;;;;;5048898;28;20049;-70
2023/06/30 07:11:03;;;;;;;30.25;28.38;;;20.20;99.90;;;;;;5048374;28;20099;-71
2023/06/30 07:13:30;;;;;;;53.88;51.00;;;19.90;99.90;;;;;;5044925;28;20092;-70
2023/06/30 07:15:56;;;;;;;35.20;33.08;;;19.80;99.90;;;;;;5032241;28;20033;-70
2023/06/30 07:18:22;;;;;;;57.00;53.80;;;19.80;99.90;;;;;;5034408;28;20045;-71
2023/06/30 07:20:48;;;;;;;37.80;35.67;;;19.80;99.90;;;;;;5019373;28;20111;-70
2023/06/30 07:23:14;;;;;;;37.63;35.60;;;20.00;99.90;;;;;;5031957;28;20041;-70
2023/06/30 07:25:40;;;;;;;45.95;43.58;;;20.20;99.90;;;;;;5022845;28;20037;-70
2023/06/30 07:28:05;;;;;;;37.65;35.60;;;20.30;99.90;;;;;;5048338;28;20096;-70
2023/06/30 07:30:31;;;;;;;37.17;34.90;;;20.20;99.90;;;;;;5007442;28;20045;-71
2023/06/30 07:32:57;;;;;;;41.63;39.33;;;20.20;99.90;;;;;;5041120;28;20049;-70
2023/06/30 07:35:23;;;;;;;54.55;51.80;;;20.20;99.90;;;;;;5033999;28;20043;-71
2023/06/30 07:37:49;;;;;;;42.88;40.67;;;19.90;99.90;;;;;;5025498;28;20041;-70
2023/06/30 07:40:16;;;;;;;109.95;105.05;;;20.40;99.90;;;;;;5028711;28;20045;-71
2023/06/30 07:42:42;;;;;;;43.00;40.75;;;21.10;99.90;;;;;;5025455;28;20065;-71
2023/06/30 07:45:10;;;;;;;64.85;61.55;;;21.90;99.90;;;;;;5009151;28;20085;-71
2023/06/30 07:47:37;;;;;;;59.17;56.28;;;22.50;99.90;;;;;;5011757;28;20490;-70
2023/06/30 07:50:09;;;;;;;50.35;47.75;;;22.70;99.90;;;;;;5029719;28;20045;-70
2023/06/30 07:52:45;;;;;;;53.88;51.17;;;22.90;99.90;;;;;;5027560;28;20087;-70
2023/06/30 07:55:18;;;;;;;66.18;63.00;;;22.70;99.90;;;;;;5047895;28;20050;-70
2023/06/30 07:57:45;;;;;;;74.03;70.72;;;23.10;99.90;;;;;;5042991;28;20049;-70
2023/06/30 08:00:15;;;;;;;115.25;110.28;;;22.60;99.90;;;;;;5024569;28;20056;-70
2023/06/30 08:02:41;;;;;;;68.18;64.88;;;21.60;99.90;;;;;;5028588;28;20041;-70
2023/06/30 08:05:07;;;;;;;78.53;75.10;;;21.30;99.90;;;;;;5031759;28;20498;-70
2023/06/30 08:07:33;;;;;;;134.25;128.55;;;21.80;99.90;;;;;;5024970;28;20406;-70
2023/06/30 08:09:59;;;;;;;137.27;131.55;;;22.40;99.90;;;;;;5020140;28;20073;-70
2023/06/30 08:12:25;;;;;;;97.75;93.38;;;22.90;99.00;;;;;;5024148;28;20481;-72
2023/06/30 08:14:50;;;;;;;144.00;137.93;;;23.20;98.80;;;;;;5029242;28;20666;-70
2023/06/30 08:17:16;;;;;;;159.65;153.02;;;23.10;97.70;;;;;;5027075;28;20036;-70
2023/06/30 08:19:42;;;;;;;161.20;154.48;;;22.60;97.30;;;;;;5020394;28;20402;-70
2023/06/30 08:22:09;;;;;;;151.18;144.90;;;22.90;99.20;;;;;;5029340;28;20072;-70
2023/06/30 08:24:35;;;;;;;82.25;78.60;;;22.90;97.00;;;;;;5028097;28;20138;-70
2023/06/30 08:27:01;;;;;;;116.43;111.40;;;23.00;95.60;;;;;;5025276;28;20132;-71
2023/06/30 08:29:26;;;;;;;122.70;117.18;;;23.20;96.60;;;;;;5020689;28;20037;-70
2023/06/30 08:31:54;;;;;;;47.20;44.85;;;23.40;95.70;;;;;;5024927;28;20042;-71
2023/06/30 08:34:23;;;;;;;125.43;119.88;;;23.50;94.30;;;;;;5043520;28;20120;-70
2023/06/30 08:36:49;;;;;;;26.77;25.33;;;23.60;95.30;;;;;;5024190;28;20152;-71
2023/06/30 08:39:15;;;;;;;59.63;56.88;;;23.60;93.70;;;;;;5055245;28;20041;-71
2023/06/30 08:41:42;;;;;;;27.13;25.42;;;23.40;94.10;;;;;;5027287;28;20067;-71
2023/06/30 08:44:09;;;;;;;36.88;34.78;;;23.40;94.10;;;;;;5023647;28;20366;-70
2023/06/30 08:46:35;;;;;;;24.20;22.85;;;23.50;93.80;;;;;;5026000;28;20072;-71
2023/06/30 08:49:01;;;;;;;36.53;34.63;;;23.80;94.60;;;;;;5040907;28;20076;-71
2023/06/30 08:51:27;;;;;;;41.00;38.72;;;23.70;93.30;;;;;;5016982;28;20042;-70
2023/06/30 08:53:53;;;;;;;50.80;48.10;;;23.00;94.80;;;;;;5033690;28;20052;-69
2023/06/30 08:56:20;;;;;;;64.78;61.58;;;22.30;95.80;;;;;;5022404;28;20037;-70
2023/06/30 08:58:46;;;;;;;65.63;62.63;;;21.60;97.50;;;;;;5044631;28;20037;-72
2023/06/30 09:01:13;;;;;;;110.57;105.72;;;21.20;98.70;;;;;;5014985;28;20037;-71
2023/06/30 09:03:38;;;;;;;56.03;53.35;;;20.90;99.30;;;;;;5034312;28;20036;-71
2023/06/30 09:06:06;;;;;;;94.28;90.22;;;21.30;99.60;;;;;;5018205;28;20103;-71
2023/06/30 09:08:56;;;;;;;50.75;48.25;;;21.90;98.40;;;;;;5045117;28;20378;-71
2023/06/30 09:11:24;;;;;;;94.40;90.18;;;22.40;97.90;;;;;;5024874;28;20049;-71
2023/06/30 09:13:51;;;;;;;62.65;59.92;;;22.90;97.10;;;;;;5043826;28;20065;-71
2023/06/30 09:16:17;;;;;;;71.47;68.30;;;22.80;94.40;;;;;;5027232;28;20080;-71
2023/06/30 09:18:45;;;;;;;34.38;32.58;;;22.10;92.70;;;;;;5026855;28;20175;-71
2023/06/30 09:21:12;;;;;;;43.17;40.92;;;21.60;94.60;;;;;;5010712;28;20052;-71
2023/06/30 09:23:39;;;;;;;30.25;28.30;;;21.90;95.50;;;;;;5020757;28;20565;-71
2023/06/30 09:26:14;;;;;;;28.73;26.90;;;22.40;96.70;;;;;;5027426;28;20041;-71
2023/06/30 09:28:42;;;;;;;40.05;38.08;;;23.00;95.10;;;;;;5026381;28;20048;-71
2023/06/30 09:31:08;;;;;;;53.80;51.35;;;23.20;94.90;;;;;;5019948;28;20037;-71
2023/06/30 09:33:35;;;;;;;189.40;179.43;;;23.60;92.80;;;;;;5024558;28;20041;-72
2023/06/30 09:36:03;;;;;;;56.58;53.92;;;24.00;90.90;;;;;;5026558;28;20041;-71
2023/06/30 09:38:29;;;;;;;65.80;62.70;;;24.10;91.50;;;;;;5026858;28;20048;-72
2023/06/30 09:40:56;;;;;;;104.03;99.55;;;24.20;90.90;;;;;;5022219;28;20046;-72
2023/06/30 09:43:23;;;;;;;96.65;92.50;;;24.30;88.60;;;;;;5036633;28;20482;-71
2023/06/30 09:46:02;;;;;;;132.98;126.97;;;24.30;84.60;;;;;;5042806;28;20049;-72
2023/06/30 09:48:46;;;;;;;52.95;50.45;;;24.30;82.60;;;;;;5040972;28;20045;-72
2023/06/30 09:51:12;;;;;;;124.30;118.97;;;24.20;79.80;;;;;;5015211;28;20050;-71
2023/06/30 09:53:40;;;;;;;76.85;73.35;;;24.20;84.90;;;;;;5025531;28;20048;-72
2023/06/30 09:56:07;;;;;;;136.20;130.13;;;24.20;81.60;;;;;;5025861;28;20041;-71
2023/06/30 09:58:33;;;;;;;96.63;92.32;;;23.60;82.70;;;;;;5023247;28;20121;-71
2023/06/30 10:00:59;;;;;;;116.45;111.25;;;23.30;81.90;;;;;;5024818;28;20045;-72
2023/06/30 10:03:25;;;;;;;130.02;124.22;;;23.30;83.60;;;;;;5025263;28;20052;-70
2023/06/30 10:05:52;;;;;;;117.88;112.63;;;23.40;83.90;;;;;;5026440;28;20037;-71
2023/06/30 10:08:20;;;;;;;114.75;109.45;;;23.50;83.80;;;;;;5018587;28;20054;-71
2023/06/30 10:10:47;;;;;;;27.15;25.23;;;23.40;84.30;;;;;;5026567;28;20057;-71
2023/06/30 10:13:15;;;;;;;39.08;37.13;;;23.10;80.70;;;;;;5036604;28;20107;-72
2023/06/30 10:15:41;;;;;;;41.88;39.53;;;22.80;79.10;;;;;;5036331;28;20095;-72
2023/06/30 10:18:12;;;;;;;114.05;108.95;;;22.70;79.90;;;;;;5042425;28;20537;-71
2023/06/30 10:20:38;;;;;;;86.90;82.75;;;22.90;84.20;;;;;;5024440;28;20485;-72
2023/06/30 10:23:05;;;;;;;28.15;26.65;;;23.20;83.60;;;;;;5036236;28;20045;-72
2023/06/30 10:25:34;;;;;;;45.75;43.58;;;23.60;81.40;;;;;;5023083;28;20064;-72
2023/06/30 10:28:00;;;;;;;123.60;118.22;;;23.70;78.80;;;;;;5032519;28;20041;-72
2023/06/30 10:30:27;;;;;;;89.03;85.05;;;23.50;80.50;;;;;;5022960;28;20042;-71
2023/06/30 10:32:53;;;;;;;132.32;126.25;;;23.20;80.30;;;;;;5020702;28;20045;-70
2023/06/30 10:35:20;;;;;;;105.50;100.82;;;23.20;83.10;;;;;;5019949;28;20041;-70
2023/06/30 10:37:46;;;;;;;27.55;25.98;;;23.50;83.90;;;;;;5020343;28;20049;-71
2023/06/30 10:40:30;;;;;;;16.58;15.48;;;23.80;79.00;;;;;;5018797;28;20034;-71
2023/06/30 10:42:57;;;;;;;37.05;35.25;;;24.00;77.90;;;;;;5002811;28;20084;-71
2023/06/30 10:46:07;;;;;;;44.17;41.90;;;24.00;77.40;;;;;;5019743;28;20143;-70
2023/06/30 10:48:33;;;;;;;100.70;96.13;;;23.60;78.00;;;;;;5029532;28;20048;-70
2023/06/30 10:50:59;;;;;;;70.53;67.28;;;23.50;79.00;;;;;;5011765;28;20041;-71
2023/06/30 10:53:27;;;;;;;160.38;153.32;;;23.50;78.90;;;;;;5014788;28;20426;-71
2023/06/30 10:55:59;;;;;;;56.92;54.28;;;23.60;80.10;;;;;;5021257;28;20080;-71
2023/06/30 10:58:26;;;;;;;196.57;188.18;;;23.60;78.00;;;;;;5033935;28;20485;-71
2023/06/30 11:01:03;;;;;;;37.05;35.03;;;23.30;80.70;;;;;;4990312;28;20156;-70
2023/06/30 11:03:55;;;;;;;36.38;34.40;;;23.10;77.30;;;;;;5018975;28;20037;-70
2023/06/30 11:06:21;;;;;;;42.17;40.08;;;22.70;78.60;;;;;;5023387;28;20029;-70
2023/06/30 11:09:13;;;;;;;171.05;163.68;;;22.30;79.40;;;;;;5025607;28;20041;-70
2023/06/30 11:11:50;;;;;;;158.98;152.32;;;22.10;81.90;;;;;;5011889;28;20050;-70
2023/06/30 11:14:31;;;;;;;211.32;202.05;;;22.00;81.90;;;;;;5010230;28;20050;-71
2023/06/30 11:17:06;;;;;;;110.28;105.30;;;22.20;83.50;;;;;;5023298;28;20498;-70
2023/06/30 11:19:34;;;;;;;72.72;68.95;;;22.50;84.00;;;;;;5022706;28;20173;-71
2023/06/30 11:22:25;;;;;;;174.63;167.20;;;22.60;80.40;;;;;;5016171;28;20037;-70
2023/06/30 11:24:51;;;;;;;184.57;176.75;;;22.50;80.20;;;;;;5041127;28;20064;-71
2023/06/30 11:27:18;;;;;;;142.75;136.77;;;22.20;80.80;;;;;;5019783;28;20406;-70
2023/06/30 11:29:44;;;;;;;180.82;173.18;;;21.90;79.70;;;;;;5028188;28;20033;-69
2023/06/30 11:32:10;;;;;;;199.00;190.60;;;21.80;78.80;;;;;;5026372;28;20569;-71
2023/06/30 11:34:36;;;;;;;190.30;182.35;;;21.60;80.60;;;;;;5024046;28;20120;-70
2023/06/30 11:37:05;;;;;;;174.52;167.18;;;21.70;80.40;;;;;;5022224;28;20034;-71
2023/06/30 11:39:31;;;;;;;131.75;125.82;;;22.00;80.20;;;;;;5017715;28;20073;-71
2023/06/30 11:41:56;;;;;;;192.63;184.40;;;22.20;82.20;;;;;;5028440;28;20498;-70
2023/06/30 11:44:22;;;;;;;80.15;76.55;;;22.60;82.40;;;;;;5023321;28;20042;-70
2023/06/30 11:46:48;;;;;;;127.80;122.13;;;23.00;78.60;;;;;;5027126;28;20473;-73
2023/06/30 11:49:13;;;;;;;83.40;79.63;;;23.40;76.80;;;;;;5017132;28;20052;-71
2023/06/30 11:51:39;;;;;;;95.57;91.30;;;23.70;76.40;;;;;;5010732;28;20033;-72
2023/06/30 11:54:07;;;;;;;17.52;16.33;;;24.00;76.40;;;;;;5010446;28;20046;-70
2023/06/30 11:56:34;;;;;;;15.60;14.43;;;24.10;72.60;;;;;;5022089;28;20446;-70
2023/06/30 11:58:59;;;;;;;28.15;26.52;;;24.10;70.50;;;;;;5011330;28;20052;-71
2023/06/30 12:01:25;;;;;;;52.58;50.03;;;23.80;71.90;;;;;;5036424;28;20045;-72
2023/06/30 12:03:59;;;;;;;39.47;37.38;;;23.40;71.50;;;;;;5019969;28;20408;-70
2023/06/30 12:06:28;;;;;;;48.83;46.43;;;23.10;72.90;;;;;;5042323;28;20057;-71
2023/06/30 12:08:54;;;;;;;56.95;54.35;;;23.00;75.00;;;;;;5022296;28;20038;-70
2023/06/30 12:11:22;;;;;;;154.90;148.20;;;23.30;76.90;;;;;;5019803;28;20041;-71
2023/06/30 12:13:48;;;;;;;74.45;70.93;;;23.80;78.90;;;;;;5003244;28;20042;-71